Time;durP1;ratioP1;P1;durP2;ratioP2;P2;SDS_P1;SDS_P2;PMS_P1;PMS_P2;Temp;Humidity;BMP_temperature;BMP_pressure;BME280_temperature;BME280_humidity;BME280_pressure;Samples;Min_cycle;Max_cycle;Signal;HPM_P1;HPM_P2
2021/12/24 00:04:09;;;;;;;4.70;4.27;;;10.00;40.90;;;;;;10346692;28;20230;-70
2021/12/24 00:09:20;;;;;;;5.53;4.50;;;9.90;41.80;;;;;;10343106;28;20273;-70
2021/12/24 00:14:27;;;;;;;4.30;3.90;;;10.00;40.80;;;;;;10345159;28;20226;-70
2021/12/24 00:19:41;;;;;;;5.67;4.57;;;10.00;40.50;;;;;;10347267;28;20241;-71
2021/12/24 00:35:32;;;;;;;5.10;4.20;;;10.00;40.30;;;;;;10346415;28;20722;-71
2021/12/24 00:40:38;;;;;;;5.07;4.57;;;10.00;40.70;;;;;;10352121;28;20230;-71
2021/12/24 00:45:45;;;;;;;4.30;3.60;;;10.00;40.40;;;;;;10346558;28;20231;-71
2021/12/24 00:50:56;;;;;;;4.17;3.87;;;10.00;40.20;;;;;;10342766;28;20633;-70
2021/12/24 00:55:59;;;;;;;4.53;3.73;;;10.00;40.40;;;;;;10348414;28;20230;-71
2021/12/24 01:01:05;;;;;;;4.60;3.77;;;10.10;40.60;;;;;;10350692;28;20665;-71
2021/12/24 01:06:08;;;;;;;3.83;3.43;;;10.10;40.30;;;;;;10354697;28;20548;-71
2021/12/24 01:11:11;;;;;;;4.07;3.77;;;10.10;40.60;;;;;;10355266;28;20222;-71
2021/12/24 01:16:27;;;;;;;4.33;3.83;;;10.10;40.60;;;;;;10354602;28;20218;-71
2021/12/24 01:21:49;;;;;;;4.47;3.83;;;10.20;40.10;;;;;;10353072;28;20235;-71
2021/12/24 01:27:02;;;;;;;4.67;3.57;;;10.20;40.40;;;;;;10357837;28;20242;-71
2021/12/24 01:42:48;;;;;;;4.23;3.43;;;10.30;40.20;;;;;;10354832;28;20223;-71
2021/12/24 01:47:56;;;;;;;3.57;3.27;;;10.30;40.20;;;;;;10352226;28;20241;-71
2021/12/24 01:53:01;;;;;;;3.93;3.50;;;10.40;40.30;;;;;;10358707;28;20222;-71
2021/12/24 01:58:05;;;;;;;5.83;3.33;;;10.40;40.30;;;;;;10356218;28;20222;-71
2021/12/24 02:03:11;;;;;;;3.37;3.10;;;10.40;40.30;;;;;;10356404;28;20511;-71
2021/12/24 02:08:16;;;;;;;3.43;3.00;;;10.40;40.30;;;;;;10350740;28;20642;-71
2021/12/24 02:13:19;;;;;;;4.03;3.47;;;10.50;40.40;;;;;;10356231;28;20736;-70
2021/12/24 02:28:15;;;;;;;3.63;3.07;;;10.50;40.40;;;;;;10354364;28;20249;-70
2021/12/24 02:29:32;;;;;;;3.50;2.97;;;10.60;40.50;;;;;;10350785;28;20225;-70
2021/12/24 02:34:35;;;;;;;3.93;3.20;;;10.60;40.50;;;;;;10352069;28;20232;-70
2021/12/24 02:39:40;;;;;;;2.90;2.70;;;10.60;40.50;;;;;;10352116;28;20230;-70
2021/12/24 02:44:44;;;;;;;3.13;2.80;;;10.60;41.20;;;;;;10353029;28;20226;-70
2021/12/24 02:55:12;;;;;;;3.50;3.00;;;10.60;40.50;;;;;;10349064;28;20237;-70
2021/12/24 03:00:20;;;;;;;3.00;2.67;;;10.60;40.50;;;;;;10356337;28;20229;-70
2021/12/24 03:05:25;;;;;;;4.73;2.73;;;10.60;40.50;;;;;;10354386;28;20243;-70
2021/12/24 03:10:30;;;;;;;3.13;2.67;;;10.60;40.50;;;;;;10348873;28;20793;-70
2021/12/24 03:15:34;;;;;;;3.70;2.60;;;10.60;40.50;;;;;;10347133;28;20246;-69
2021/12/24 03:20:37;;;;;;;4.13;3.23;;;10.70;40.50;;;;;;10356911;28;20223;-70
2021/12/24 03:25:41;;;;;;;2.97;2.67;;;10.70;40.50;;;;;;10351009;28;20231;-70
2021/12/24 03:30:44;;;;;;;3.03;2.77;;;10.70;40.50;;;;;;10348811;28;20585;-70
2021/12/24 03:35:48;;;;;;;2.90;2.70;;;10.70;40.50;;;;;;10350502;28;20226;-70
2021/12/24 03:40:52;;;;;;;2.73;2.53;;;10.60;40.50;;;;;;10354143;28;20226;-70
2021/12/24 03:46:02;;;;;;;2.93;2.47;;;10.70;40.50;;;;;;10347033;28;20603;-70
2021/12/24 03:51:22;;;;;;;2.57;2.37;;;10.70;40.50;;;;;;10348802;28;20892;-70
2021/12/24 03:56:27;;;;;;;2.67;2.47;;;10.70;40.50;;;;;;10352429;28;20237;-70
2021/12/24 04:01:30;;;;;;;2.47;2.13;;;10.70;40.50;;;;;;10348505;28;20240;-70
2021/12/24 04:06:34;;;;;;;2.63;2.30;;;10.80;40.60;;;;;;10349330;28;20668;-70
2021/12/24 04:11:40;;;;;;;2.50;2.30;;;10.80;40.60;;;;;;10348858;28;20222;-70
2021/12/24 04:16:43;;;;;;;2.30;2.10;;;10.90;40.60;;;;;;10350351;28;20236;-70
2021/12/24 04:27:09;;;;;;;2.50;2.30;;;11.10;40.40;;;;;;10348682;28;20222;-69
2021/12/24 04:32:17;;;;;;;2.73;2.20;;;11.10;40.00;;;;;;10346401;28;20230;-69
2021/12/24 04:38:05;;;;;;;2.57;2.20;;;11.20;40.10;;;;;;10348913;28;20240;-69
2021/12/24 05:04:51;;;;;;;4.43;2.33;;;11.20;39.40;;;;;;10352629;28;20606;-69
2021/12/24 05:09:54;;;;;;;2.33;2.13;;;11.20;39.10;;;;;;10356739;28;20716;-69
2021/12/24 05:15:00;;;;;;;2.83;2.17;;;11.20;39.50;;;;;;10354265;28;20253;-69
2021/12/24 05:25:24;;;;;;;2.80;2.07;;;11.10;40.40;;;;;;10352116;28;20234;-69
2021/12/24 05:30:29;;;;;;;2.67;2.40;;;11.10;39.70;;;;;;10358135;28;20230;-69
2021/12/24 05:35:33;;;;;;;2.40;2.20;;;11.00;39.70;;;;;;10347418;28;20231;-69
2021/12/24 05:40:36;;;;;;;4.03;2.30;;;10.90;39.80;;;;;;10351745;28;20234;-69
2021/12/24 05:45:40;;;;;;;3.53;2.40;;;10.80;39.90;;;;;;10348483;28;20730;-69
2021/12/24 05:50:44;;;;;;;2.47;2.27;;;10.70;40.00;;;;;;10353588;28;20232;-69
2021/12/24 05:55:47;;;;;;;2.53;2.30;;;10.60;40.50;;;;;;10351662;28;20226;-69
2021/12/24 06:00:51;;;;;;;2.20;2.00;;;10.60;40.50;;;;;;10351792;28;20284;-68
2021/12/24 06:05:55;;;;;;;2.63;2.10;;;10.50;40.40;;;;;;10353017;28;20223;-69
2021/12/24 06:10:58;;;;;;;2.20;2.00;;;10.50;40.40;;;;;;10353095;28;20226;-68
2021/12/24 06:16:02;;;;;;;2.30;2.10;;;10.50;40.40;;;;;;10352628;28;20234;-69
2021/12/24 06:21:06;;;;;;;2.27;2.10;;;10.50;40.40;;;;;;10350307;28;20697;-69
2021/12/24 06:26:12;;;;;;;2.60;2.40;;;10.40;40.30;;;;;;10349320;28;20230;-69
2021/12/24 06:31:16;;;;;;;2.60;2.40;;;10.40;40.30;;;;;;10350119;28;20237;-69
2021/12/24 06:36:19;;;;;;;2.57;2.30;;;10.40;40.30;;;;;;10352331;28;20227;-69
2021/12/24 06:41:22;;;;;;;2.60;2.40;;;10.40;40.80;;;;;;10349081;28;20230;-69
2021/12/24 06:46:27;;;;;;;3.03;2.57;;;10.40;40.50;;;;;;10350293;28;20234;-69
2021/12/24 06:51:30;;;;;;;3.13;2.47;;;10.40;40.60;;;;;;10346354;28;20763;-69
2021/12/24 06:56:34;;;;;;;3.43;2.73;;;10.40;40.60;;;;;;10339904;28;20726;-69
2021/12/24 07:01:38;;;;;;;2.80;2.53;;;10.40;40.80;;;;;;10345974;28;20233;-69
2021/12/24 07:06:45;;;;;;;2.93;2.73;;;10.40;40.80;;;;;;10354181;28;20230;-68
2021/12/24 07:11:49;;;;;;;3.03;2.40;;;10.40;40.80;;;;;;10350330;28;20222;-68
2021/12/24 07:16:53;;;;;;;2.90;2.60;;;10.40;40.70;;;;;;10348521;28;20226;-68
2021/12/24 07:21:57;;;;;;;3.00;2.77;;;10.40;40.70;;;;;;10349029;28;20225;-68
2021/12/24 07:27:01;;;;;;;3.60;3.27;;;10.40;40.70;;;;;;10347068;28;20237;-68
2021/12/24 07:32:07;;;;;;;3.67;2.93;;;10.50;40.80;;;;;;10345272;28;20698;-68
2021/12/24 07:37:10;;;;;;;3.83;3.30;;;10.50;40.80;;;;;;10346941;28;20304;-68
2021/12/24 07:42:13;;;;;;;2.93;2.53;;;10.50;40.90;;;;;;10339654;28;20240;-68
2021/12/24 07:47:27;;;;;;;2.63;2.43;;;10.50;40.80;;;;;;10346213;28;20612;-68
2021/12/24 07:52:31;;;;;;;2.40;2.20;;;10.50;40.90;;;;;;10348631;28;20218;-68
2021/12/24 07:57:34;;;;;;;2.87;2.60;;;10.50;41.00;;;;;;10347579;28;20222;-68
2021/12/24 08:02:39;;;;;;;2.77;2.57;;;10.40;41.00;;;;;;10345536;28;20230;-68
2021/12/24 08:07:43;;;;;;;4.73;2.77;;;10.40;41.10;;;;;;10351805;28;20236;-68
2021/12/24 08:12:46;;;;;;;2.60;2.40;;;10.40;41.20;;;;;;10351740;28;20736;-68
2021/12/24 08:17:51;;;;;;;2.30;2.10;;;10.40;41.20;;;;;;10358860;28;20714;-73
2021/12/24 08:22:55;;;;;;;3.07;2.77;;;10.30;41.20;;;;;;10354058;28;20214;-73
2021/12/24 08:27:59;;;;;;;2.90;2.60;;;10.40;41.40;;;;;;10353914;28;20260;-73
2021/12/24 08:33:04;;;;;;;2.63;2.43;;;10.40;41.40;;;;;;10353087;28;20214;-73
2021/12/24 08:38:07;;;;;;;3.30;3.00;;;10.40;41.40;;;;;;10355026;28;20605;-73
2021/12/24 08:43:10;;;;;;;4.23;3.60;;;10.40;41.50;;;;;;10355818;28;20226;-74
2021/12/24 08:48:15;;;;;;;4.03;3.63;;;10.50;41.50;;;;;;10355445;28;20257;-74
2021/12/24 08:53:19;;;;;;;4.57;4.17;;;10.50;41.50;;;;;;10353524;28;20317;-73
2021/12/24 08:58:23;;;;;;;4.13;3.27;;;10.60;41.50;;;;;;10357359;28;20230;-74
2021/12/24 09:03:28;;;;;;;3.27;2.97;;;10.60;41.70;;;;;;10350593;28;20947;-74
2021/12/24 09:08:31;;;;;;;3.00;2.77;;;10.60;41.80;;;;;;10357241;28;20807;-73
2021/12/24 09:13:34;;;;;;;3.77;2.50;;;10.60;41.80;;;;;;10352672;28;20230;-73
2021/12/24 09:18:41;;;;;;;3.03;2.73;;;10.60;41.90;;;;;;10349779;28;20218;-73
2021/12/24 09:23:48;;;;;;;4.93;3.87;;;10.60;42.00;;;;;;10347391;28;20226;-72
2021/12/24 09:29:06;;;;;;;3.23;2.80;;;10.70;42.10;;;;;;10355952;28;20236;-73
2021/12/24 09:34:11;;;;;;;3.23;2.80;;;10.70;42.20;;;;;;10350082;28;20235;-69
2021/12/24 09:39:15;;;;;;;3.13;2.83;;;10.70;42.30;;;;;;10351553;28;20219;-70
2021/12/24 09:44:19;;;;;;;2.73;2.53;;;10.70;42.20;;;;;;10350781;28;20979;-71
2021/12/24 09:49:24;;;;;;;3.57;2.53;;;10.70;42.50;;;;;;10355349;28;20231;-70
2021/12/24 09:54:27;;;;;;;2.77;2.57;;;10.70;42.70;;;;;;10351612;28;22113;-71
2021/12/24 09:59:30;;;;;;;2.90;2.67;;;10.70;42.60;;;;;;10348439;28;20237;-70
2021/12/24 10:04:37;;;;;;;2.60;2.40;;;10.70;42.70;;;;;;10348386;28;20234;-69
2021/12/24 10:09:42;;;;;;;2.63;2.37;;;10.70;42.90;;;;;;10350678;28;20226;-69
2021/12/24 10:14:49;;;;;;;2.77;2.13;;;10.70;43.00;;;;;;10354815;28;20230;-70
2021/12/24 10:19:56;;;;;;;2.70;2.43;;;10.70;43.20;;;;;;10353032;28;20227;-70
2021/12/24 10:25:13;;;;;;;2.47;2.27;;;10.70;43.40;;;;;;10350028;28;20323;-70
2021/12/24 10:30:21;;;;;;;2.33;2.20;;;10.70;43.20;;;;;;10347849;28;20338;-70
2021/12/24 10:35:27;;;;;;;2.77;2.57;;;10.70;43.40;;;;;;10348847;28;20699;-69
2021/12/24 10:40:31;;;;;;;3.50;2.77;;;10.70;43.50;;;;;;10349861;28;20719;-70
2021/12/24 10:45:35;;;;;;;3.37;2.60;;;10.70;43.40;;;;;;10349747;28;21274;-70
2021/12/24 10:50:49;;;;;;;3.37;2.87;;;10.80;43.40;;;;;;10348655;28;20896;-70
2021/12/24 10:55:54;;;;;;;2.43;2.23;;;10.70;43.50;;;;;;10348664;28;20233;-70
2021/12/24 11:00:59;;;;;;;2.30;2.10;;;10.70;43.60;;;;;;10347559;28;20595;-73
2021/12/24 11:06:07;;;;;;;2.37;2.17;;;10.80;43.70;;;;;;10347965;28;20284;-72
2021/12/24 11:11:17;;;;;;;2.40;2.20;;;10.80;43.70;;;;;;10349500;28;20298;-72
2021/12/24 11:16:22;;;;;;;2.00;1.90;;;10.80;43.70;;;;;;10346883;28;20234;-73
2021/12/24 11:21:28;;;;;;;2.50;2.30;;;10.90;43.50;;;;;;10350484;28;20256;-69
2021/12/24 11:26:39;;;;;;;2.83;2.30;;;10.90;43.80;;;;;;10348252;28;20230;-76
2021/12/24 11:31:43;;;;;;;2.00;1.90;;;10.90;43.60;;;;;;10349031;28;20219;-71
2021/12/24 11:36:48;;;;;;;2.10;1.90;;;10.90;43.80;;;;;;10346431;28;20234;-74
2021/12/24 11:41:52;;;;;;;3.10;2.20;;;11.00;43.90;;;;;;10346901;28;20239;-72
2021/12/24 11:46:55;;;;;;;2.87;2.33;;;11.00;43.80;;;;;;10347601;28;20229;-70
2021/12/24 11:51:59;;;;;;;2.50;2.10;;;11.00;43.90;;;;;;10343466;28;20596;-73
2021/12/24 11:57:16;;;;;;;2.10;2.00;;;11.00;43.90;;;;;;10340279;28;20805;-72
2021/12/24 12:02:43;;;;;;;2.30;2.10;;;11.00;44.50;;;;;;10340693;28;20226;-72
2021/12/24 12:07:48;;;;;;;2.63;2.30;;;10.90;44.10;;;;;;10348881;28;20238;-73
2021/12/24 12:12:51;;;;;;;2.13;2.03;;;10.90;44.40;;;;;;10348624;28;20296;-72
2021/12/24 12:17:58;;;;;;;3.77;3.37;;;10.80;44.10;;;;;;10347725;28;20246;-72
2021/12/24 12:23:03;;;;;;;3.40;3.10;;;10.80;44.40;;;;;;10347269;28;20236;-73
2021/12/24 12:28:12;;;;;;;5.77;4.20;;;10.80;44.60;;;;;;10347414;28;20233;-72
2021/12/24 12:33:17;;;;;;;4.93;4.40;;;10.80;44.20;;;;;;10347260;28;20234;-72
2021/12/24 12:38:30;;;;;;;2.77;2.53;;;10.80;44.40;;;;;;10349840;28;20237;-72
2021/12/24 12:43:36;;;;;;;2.77;2.57;;;10.90;45.00;;;;;;10344867;28;20704;-72
2021/12/24 12:48:53;;;;;;;3.10;2.80;;;10.90;44.60;;;;;;10349944;28;20230;-72
2021/12/24 12:54:00;;;;;;;2.70;2.50;;;10.90;45.30;;;;;;10347309;28;20711;-73
2021/12/24 12:59:07;;;;;;;2.40;2.00;;;10.80;44.80;;;;;;10350245;28;20248;-73
2021/12/24 13:04:16;;;;;;;3.53;2.33;;;10.90;45.30;;;;;;10352062;28;20226;-73
2021/12/24 13:09:23;;;;;;;2.77;2.57;;;10.90;45.30;;;;;;10355441;28;20222;-73
2021/12/24 13:14:30;;;;;;;3.30;2.70;;;10.90;45.40;;;;;;10350422;28;20273;-72
2021/12/24 13:24:57;;;;;;;2.77;2.20;;;10.90;45.20;;;;;;10351581;28;20741;-72
2021/12/24 13:30:13;;;;;;;2.70;1.87;;;10.90;45.30;;;;;;10353553;28;20721;-72
2021/12/24 13:35:17;;;;;;;1.90;1.80;;;10.80;45.80;;;;;;10349657;28;20218;-72
2021/12/24 13:40:25;;;;;;;2.50;1.90;;;10.90;45.10;;;;;;10350919;28;20753;-72
2021/12/24 13:45:32;;;;;;;2.20;2.00;;;10.90;45.50;;;;;;10353431;28;20237;-73
2021/12/24 13:56:10;;;;;;;1.87;1.77;;;10.80;45.40;;;;;;10347403;28;20618;-73
2021/12/24 14:01:13;;;;;;;2.10;1.90;;;10.90;45.40;;;;;;10348393;28;20222;-73
2021/12/24 14:06:16;;;;;;;2.20;2.00;;;10.80;45.00;;;;;;10355108;28;20314;-72
2021/12/24 14:11:35;;;;;;;2.30;1.80;;;10.80;46.00;;;;;;10351430;28;20218;-73
2021/12/24 14:16:53;;;;;;;2.00;1.80;;;10.80;45.60;;;;;;10350574;28;20227;-69
2021/12/24 14:22:06;;;;;;;2.80;1.73;;;10.80;45.30;;;;;;10345681;28;20443;-69
2021/12/24 14:27:12;;;;;;;2.20;2.00;;;10.80;45.90;;;;;;10350362;28;20235;-70
2021/12/24 14:32:17;;;;;;;2.50;2.20;;;10.80;45.80;;;;;;10349549;28;20252;-70
2021/12/24 14:37:25;;;;;;;2.70;2.50;;;10.80;46.40;;;;;;10349795;28;20240;-70
2021/12/24 14:42:37;;;;;;;2.60;2.40;;;10.80;45.90;;;;;;10354890;28;20238;-70
2021/12/24 14:47:54;;;;;;;1.90;1.80;;;10.80;46.10;;;;;;10347539;28;20267;-69
2021/12/24 14:53:09;;;;;;;1.90;1.80;;;10.70;45.60;;;;;;10348738;28;20223;-70
2021/12/24 14:58:17;;;;;;;2.47;1.70;;;10.70;46.50;;;;;;10347310;28;20240;-70
2021/12/24 15:03:23;;;;;;;3.00;1.80;;;10.80;46.00;;;;;;10351667;28;20230;-70
2021/12/24 15:08:29;;;;;;;1.87;1.77;;;10.80;45.60;;;;;;10346053;28;20230;-70
2021/12/24 15:13:34;;;;;;;2.00;1.80;;;10.80;46.00;;;;;;10350568;28;20976;-70
2021/12/24 15:18:38;;;;;;;2.20;2.00;;;10.80;46.00;;;;;;10351857;28;20535;-69
2021/12/24 15:23:41;;;;;;;2.10;1.90;;;10.80;45.60;;;;;;10352266;28;20238;-70
2021/12/24 15:28:47;;;;;;;1.73;1.63;;;10.70;45.40;;;;;;10344586;28;20594;-70
2021/12/24 15:33:52;;;;;;;2.77;2.10;;;10.80;46.00;;;;;;10355832;28;20237;-70
2021/12/24 15:38:55;;;;;;;2.03;1.93;;;10.80;45.70;;;;;;10350823;28;20733;-70
2021/12/24 15:44:00;;;;;;;2.40;2.20;;;10.70;45.50;;;;;;10350411;28;20242;-70
2021/12/24 15:49:03;;;;;;;2.40;2.20;;;10.70;45.70;;;;;;10355012;28;20233;-70
2021/12/24 15:54:06;;;;;;;2.60;2.40;;;10.70;45.50;;;;;;10347589;28;20230;-70
2021/12/24 15:59:11;;;;;;;2.43;2.27;;;10.80;45.50;;;;;;10351514;28;20226;-70
2021/12/24 16:04:14;;;;;;;2.77;2.57;;;10.80;45.80;;;;;;10348373;28;20233;-70
2021/12/24 16:09:20;;;;;;;2.53;2.33;;;10.80;45.50;;;;;;10351260;28;20238;-70
2021/12/24 16:14:26;;;;;;;3.13;2.93;;;10.80;45.40;;;;;;10348084;28;20254;-70
2021/12/24 16:19:30;;;;;;;2.90;2.70;;;10.80;45.70;;;;;;10350918;28;20630;-70
2021/12/24 16:24:33;;;;;;;3.07;2.77;;;10.90;45.40;;;;;;10349906;28;20234;-70
2021/12/24 16:29:50;;;;;;;3.00;2.80;;;10.90;45.50;;;;;;10351784;28;20707;-70
2021/12/24 16:34:53;;;;;;;2.80;2.60;;;10.80;46.20;;;;;;10357269;28;20230;-70
2021/12/24 16:39:57;;;;;;;2.53;2.33;;;10.80;45.50;;;;;;10357046;28;20226;-70
2021/12/24 16:45:02;;;;;;;2.50;2.30;;;10.90;45.50;;;;;;10353792;28;20230;-69
2021/12/24 16:50:06;;;;;;;2.50;2.30;;;10.80;45.60;;;;;;10355856;28;20214;-69
2021/12/24 16:55:09;;;;;;;3.60;2.40;;;10.80;45.50;;;;;;10351430;28;20594;-69
2021/12/24 17:00:15;;;;;;;2.67;2.47;;;10.80;45.50;;;;;;10354849;28;20230;-70
2021/12/24 17:05:18;;;;;;;2.50;2.30;;;10.70;45.90;;;;;;10350516;28;20227;-69
2021/12/24 17:10:21;;;;;;;2.10;2.00;;;10.70;45.60;;;;;;10356773;28;20234;-70
2021/12/24 17:15:26;;;;;;;2.70;2.50;;;10.70;45.60;;;;;;10358835;28;20234;-70
2021/12/24 17:20:31;;;;;;;2.73;2.53;;;10.70;45.80;;;;;;10358912;28;20276;-70
2021/12/24 17:25:34;;;;;;;3.37;3.17;;;10.70;45.60;;;;;;10360767;28;20301;-70
2021/12/24 17:30:39;;;;;;;5.47;4.90;;;10.70;45.50;;;;;;10352748;28;20757;-70
2021/12/24 17:35:42;;;;;;;3.60;3.23;;;10.60;46.00;;;;;;10354911;28;20722;-69
2021/12/24 17:40:47;;;;;;;4.20;3.80;;;10.70;45.90;;;;;;10350786;28;20218;-70
2021/12/24 17:45:51;;;;;;;4.13;3.80;;;10.60;45.90;;;;;;10355435;28;20233;-69
2021/12/24 17:50:55;;;;;;;3.83;3.53;;;10.70;46.30;;;;;;10356947;28;20311;-69
2021/12/24 17:55:58;;;;;;;5.70;4.77;;;10.70;46.00;;;;;;10354916;28;20230;-70
2021/12/24 18:01:04;;;;;;;10.20;7.77;;;10.70;45.90;;;;;;10354987;28;20698;-72
2021/12/24 18:06:07;;;;;;;5.80;5.20;;;10.70;46.30;;;;;;10350358;28;20240;-69
2021/12/24 18:11:11;;;;;;;5.60;4.97;;;10.70;45.90;;;;;;10355725;28;20221;-70
2021/12/24 18:16:16;;;;;;;5.67;5.17;;;10.70;46.10;;;;;;10350684;28;20230;-70
2021/12/24 18:21:21;;;;;;;12.50;8.13;;;10.70;46.40;;;;;;10355125;28;20237;-70
2021/12/24 18:26:24;;;;;;;4.97;4.10;;;10.70;46.10;;;;;;10354751;28;20234;-70
2021/12/24 18:31:30;;;;;;;3.40;3.10;;;10.80;46.00;;;;;;10350175;28;20249;-70
2021/12/24 18:36:37;;;;;;;2.87;2.67;;;10.80;46.20;;;;;;10356904;28;20593;-70
2021/12/24 18:41:40;;;;;;;3.10;2.80;;;10.80;45.80;;;;;;10353420;28;20608;-69
2021/12/24 18:46:44;;;;;;;3.20;2.90;;;10.90;45.50;;;;;;10346500;28;20222;-70
2021/12/24 18:51:48;;;;;;;3.20;2.93;;;10.90;45.60;;;;;;10355248;28;20257;-69
2021/12/24 18:56:51;;;;;;;3.50;3.20;;;10.90;45.40;;;;;;10345462;28;20692;-70
2021/12/24 19:01:56;;;;;;;3.37;3.17;;;10.90;45.30;;;;;;10357387;28;20253;-70
2021/12/24 19:06:59;;;;;;;3.87;3.57;;;10.90;45.60;;;;;;10349629;28;20234;-69
2021/12/24 19:12:03;;;;;;;3.80;3.60;;;10.90;45.40;;;;;;10348691;28;20704;-71
2021/12/24 19:17:08;;;;;;;3.90;3.60;;;10.90;45.50;;;;;;10348988;28;20231;-70
2021/12/24 19:22:11;;;;;;;4.17;3.77;;;10.90;45.60;;;;;;10351076;28;20229;-69
2021/12/24 19:27:14;;;;;;;3.20;3.00;;;10.90;45.30;;;;;;10349548;28;20309;-70
2021/12/24 19:32:19;;;;;;;3.03;2.83;;;11.00;45.30;;;;;;10349126;28;20222;-70
2021/12/24 19:37:22;;;;;;;3.53;3.30;;;10.90;45.30;;;;;;10351740;28;20238;-70
2021/12/24 19:42:26;;;;;;;3.67;3.40;;;10.90;45.10;;;;;;10347870;28;20229;-70
2021/12/24 19:47:30;;;;;;;3.43;3.23;;;10.90;45.20;;;;;;10352020;28;21023;-69
2021/12/24 19:52:33;;;;;;;3.53;3.23;;;10.90;45.30;;;;;;10345239;28;20237;-68
2021/12/24 19:57:36;;;;;;;5.63;5.23;;;10.90;45.10;;;;;;10348743;28;20233;-68
2021/12/24 20:02:42;;;;;;;16.53;15.03;;;10.90;45.10;;;;;;10348661;28;20234;-68
2021/12/24 20:07:46;;;;;;;15.63;14.27;;;10.90;45.30;;;;;;10349918;28;20230;-68
2021/12/24 20:12:50;;;;;;;16.03;14.73;;;10.80;45.20;;;;;;10348895;28;20594;-68
2021/12/24 20:17:55;;;;;;;13.83;12.83;;;10.70;45.20;;;;;;10346269;28;20234;-68
2021/12/24 20:23:01;;;;;;;7.13;6.57;;;10.70;45.60;;;;;;10346833;28;20610;-68
2021/12/24 20:28:09;;;;;;;6.43;5.93;;;10.60;45.40;;;;;;10348575;28;20238;-68
2021/12/24 20:33:14;;;;;;;8.20;7.50;;;10.60;46.10;;;;;;10347460;28;20233;-68
2021/12/24 20:38:17;;;;;;;7.03;6.43;;;10.60;45.90;;;;;;10352362;28;20234;-68
2021/12/24 20:43:20;;;;;;;5.60;5.10;;;10.60;45.60;;;;;;10347598;28;20245;-68
2021/12/24 20:48:25;;;;;;;11.03;9.97;;;10.50;45.70;;;;;;10345867;28;20238;-68
2021/12/24 20:53:29;;;;;;;6.50;5.90;;;10.50;46.30;;;;;;10348661;28;20241;-70
2021/12/24 20:58:33;;;;;;;6.30;5.70;;;10.50;46.30;;;;;;10350668;28;20656;-68
2021/12/24 21:03:37;;;;;;;5.60;5.10;;;10.50;46.30;;;;;;10347744;28;20222;-68
2021/12/24 21:08:40;;;;;;;6.13;5.53;;;10.60;46.40;;;;;;10349381;28;20245;-68
2021/12/24 21:13:44;;;;;;;6.53;5.93;;;10.60;46.20;;;;;;10347877;28;20219;-68
2021/12/24 21:18:48;;;;;;;10.10;9.20;;;10.60;46.30;;;;;;10351066;28;20230;-68
2021/12/24 21:23:58;;;;;;;7.67;6.97;;;10.70;46.50;;;;;;10358238;28;20236;-68
2021/12/24 21:29:02;;;;;;;8.80;7.83;;;10.70;46.20;;;;;;10356687;28;20223;-68
2021/12/24 21:34:08;;;;;;;9.90;7.80;;;10.60;46.30;;;;;;10355406;28;20226;-68
2021/12/24 21:39:12;;;;;;;7.87;6.77;;;10.60;47.10;;;;;;10354894;28;20233;-69
2021/12/24 21:44:15;;;;;;;6.77;6.17;;;10.60;46.30;;;;;;10355321;28;20769;-68
2021/12/24 21:49:20;;;;;;;6.47;5.87;;;10.60;46.40;;;;;;10354987;28;20566;-68
2021/12/24 21:54:25;;;;;;;5.27;4.83;;;10.50;46.30;;;;;;10352561;28;20238;-68
2021/12/24 21:59:29;;;;;;;6.03;4.93;;;10.50;46.30;;;;;;10350934;28;20226;-68
2021/12/24 22:04:45;;;;;;;5.43;4.93;;;10.40;46.40;;;;;;10357189;28;20237;-68
2021/12/24 22:09:48;;;;;;;4.80;4.40;;;10.40;47.00;;;;;;10353331;28;20228;-68
2021/12/24 22:14:52;;;;;;;5.03;4.63;;;10.30;46.80;;;;;;10355890;28;21104;-68
2021/12/24 22:19:57;;;;;;;4.77;4.27;;;10.30;46.90;;;;;;10357556;28;20218;-68
2021/12/24 22:25:03;;;;;;;4.60;4.20;;;10.30;47.30;;;;;;10355650;28;20257;-68
2021/12/24 22:30:09;;;;;;;4.73;4.13;;;10.30;47.30;;;;;;10353685;28;20561;-68
2021/12/24 22:35:14;;;;;;;4.40;4.00;;;10.30;47.40;;;;;;10347781;28;20240;-68
2021/12/24 22:40:17;;;;;;;4.27;3.90;;;10.30;47.40;;;;;;10349618;28;20218;-68
2021/12/24 22:45:22;;;;;;;6.17;4.30;;;10.30;47.20;;;;;;10352502;28;20225;-68
2021/12/24 22:50:26;;;;;;;4.40;4.07;;;10.30;47.10;;;;;;10351957;28;20226;-68
2021/12/24 22:55:32;;;;;;;4.90;4.33;;;10.40;47.30;;;;;;10351189;28;20241;-68
2021/12/24 23:00:43;;;;;;;4.37;3.97;;;10.40;47.20;;;;;;10354907;28;20222;-68
2021/12/24 23:05:49;;;;;;;5.00;4.20;;;10.40;47.30;;;;;;10347577;28;20223;-68
2021/12/24 23:10:54;;;;;;;4.47;4.07;;;10.40;47.00;;;;;;10352290;28;20218;-68
2021/12/24 23:16:04;;;;;;;6.13;4.33;;;10.40;46.90;;;;;;10353869;28;20734;-68
2021/12/24 23:21:09;;;;;;;4.40;4.00;;;10.40;46.90;;;;;;10350452;28;20221;-68
2021/12/24 23:26:12;;;;;;;4.87;3.93;;;10.40;47.10;;;;;;10347905;28;20245;-68
2021/12/24 23:31:16;;;;;;;5.23;4.47;;;10.40;46.90;;;;;;10351853;28;20718;-68
2021/12/24 23:36:20;;;;;;;4.50;4.10;;;10.40;46.80;;;;;;10347008;28;20230;-68
2021/12/24 23:41:26;;;;;;;4.20;3.80;;;10.50;47.10;;;;;;10348332;28;20725;-68
2021/12/24 23:46:50;;;;;;;4.50;4.10;;;10.50;46.90;;;;;;10343617;28;20737;-68
2021/12/24 23:51:55;;;;;;;4.30;3.90;;;10.60;46.80;;;;;;10346851;28;20225;-68
2021/12/24 23:56:59;;;;;;;4.67;4.27;;;10.50;47.00;;;;;;10343036;28;20581;-68
